createdAt,value
2022-11-07T00:00:36.664Z,71.61
2022-11-07T00:03:40.597Z,72.08
2022-11-07T00:06:43.417Z,73.16
2022-11-07T00:09:45.956Z,72.87
2022-11-07T00:12:48.502Z,73.54
2022-11-07T00:15:51.148Z,74.31
2022-11-07T00:18:55.226Z,73.97
2022-11-07T00:21:57.834Z,74.24
2022-11-07T00:25:00.388Z,73.77
2022-11-07T00:28:03.006Z,74.18
2022-11-07T00:31:06.632Z,74.23
2022-11-07T00:34:10.461Z,74.18
2022-11-07T00:37:13.200Z,74.54
2022-11-07T00:40:15.907Z,74.47
2022-11-07T00:43:18.596Z,74.74
2022-11-07T00:46:21.709Z,74.51
2022-11-07T00:49:25.797Z,73.88
2022-11-07T00:52:28.461Z,73.29
2022-11-07T00:55:32.910Z,73.56
2022-11-07T00:58:36.163Z,74.11
2022-11-07T01:01:38.889Z,72.73
2022-11-07T01:04:56.884Z,73.63
2022-11-07T01:07:59.483Z,74.29
2022-11-07T01:11:06.171Z,74.96
2022-11-07T01:14:09.588Z,76.64
2022-11-07T01:17:12.124Z,76.13
2022-11-07T01:20:16.064Z,76.82
2022-11-07T01:23:18.941Z,77.50
2022-11-07T01:26:21.551Z,77.82
2022-11-07T01:29:24.179Z,77.44
2022-11-07T01:32:26.757Z,76.67
2022-11-07T01:35:30.743Z,77.24
2022-11-07T01:38:33.328Z,77.16
2022-11-07T01:41:37.833Z,77.28
2022-11-07T01:44:57.020Z,77.63
2022-11-07T01:48:02.749Z,77.83
2022-11-07T01:51:07.683Z,78.26
2022-11-07T01:54:11.044Z,78.19
2022-11-07T01:57:17.681Z,77.72
2022-11-07T02:00:22.213Z,77.21
2022-11-07T02:03:25.162Z,76.47
2022-11-07T02:06:34.600Z,76.30
2022-11-07T02:09:37.418Z,75.91
2022-11-07T02:12:40.130Z,75.84
2022-11-07T02:15:42.655Z,75.94
2022-11-07T02:18:46.440Z,76.53
2022-11-07T02:21:55.239Z,75.44
2022-11-07T02:25:02.415Z,74.94
2022-11-07T02:28:07.455Z,75.03
2022-11-07T02:31:10.087Z,74.57
2022-11-07T02:34:12.708Z,74.16
2022-11-07T02:37:22.031Z,73.52
2022-11-07T02:40:26.596Z,73.44
2022-11-07T02:43:30.413Z,72.61
2022-11-07T02:46:33.558Z,73.47
2022-11-07T02:49:36.095Z,72.86
2022-11-07T02:52:38.674Z,72.56
2022-11-07T02:55:42.719Z,72.13
2022-11-07T02:58:45.539Z,72.46
2022-11-07T03:01:48.393Z,71.94
2022-11-07T03:04:51.418Z,71.78
2022-11-07T03:07:54.012Z,71.88
2022-11-07T03:10:58.120Z,71.31
2022-11-07T03:14:00.707Z,71.04
2022-11-07T03:17:03.433Z,70.86
2022-11-07T03:20:07.311Z,70.80
2022-11-07T03:23:09.862Z,70.73
2022-11-07T03:26:13.777Z,70.64
2022-11-07T03:29:16.849Z,71.07
2022-11-07T03:32:19.496Z,70.38
2022-11-07T03:35:22.479Z,70.59
2022-11-07T03:38:25.036Z,70.37
2022-11-07T03:41:29.148Z,70.70
2022-11-07T03:44:31.787Z,69.41
2022-11-07T03:47:34.875Z,69.71
2022-11-07T03:50:37.583Z,69.79
2022-11-07T03:53:40.251Z,69.90
2022-11-07T03:56:44.214Z,69.24
2022-11-07T03:59:46.860Z,69.28
2022-11-07T04:02:49.596Z,69.08
2022-11-07T04:05:52.439Z,69.47
2022-11-07T04:08:54.996Z,70.02
2022-11-07T04:12:16.539Z,70.61
2022-11-07T04:15:36.794Z,71.52
2022-11-07T04:18:39.443Z,71.28
2022-11-07T04:21:42.062Z,70.87
2022-11-07T04:24:46.258Z,70.73
2022-11-07T04:27:49.478Z,71.05
2022-11-07T04:30:52.047Z,71.16
2022-11-07T04:33:54.678Z,71.68
2022-11-07T04:36:57.311Z,72.07
2022-11-07T04:39:59.921Z,71.27
2022-11-07T04:43:08.988Z,72.07
2022-11-07T04:46:11.627Z,71.84
2022-11-07T04:49:15.243Z,72.58
2022-11-07T04:52:17.851Z,74.01
2022-11-07T04:55:22.005Z,73.57
2022-11-07T04:58:25.961Z,72.95
2022-11-07T05:01:28.541Z,72.60
2022-11-07T05:04:31.116Z,72.71
2022-11-07T05:07:33.703Z,73.54
2022-11-07T05:10:36.319Z,73.97
2022-11-07T05:13:40.285Z,74.61
2022-11-07T05:16:43.519Z,75.03
2022-11-07T05:19:47.771Z,76.20
2022-11-07T05:23:07.787Z,76.39
2022-11-07T05:26:10.692Z,75.95
2022-11-07T05:29:14.649Z,76.52
2022-11-07T05:32:17.602Z,77.41
2022-11-07T05:35:20.132Z,78.32
2022-11-07T05:38:22.767Z,79.09
2022-11-07T05:41:25.429Z,78.45
2022-11-07T05:44:29.410Z,78.42
2022-11-07T05:47:32.167Z,77.52
2022-11-07T05:50:34.816Z,77.21
2022-11-07T05:53:37.449Z,76.49
2022-11-07T05:56:40.884Z,75.55
2022-11-07T05:59:44.792Z,75.91
2022-11-07T06:02:55.294Z,76.05
2022-11-07T06:05:58.139Z,75.65
2022-11-07T06:09:00.772Z,75.24
2022-11-07T06:12:03.843Z,75.02
2022-11-07T06:15:09.159Z,74.70
2022-11-07T06:18:14.937Z,75.04
2022-11-07T06:21:18.229Z,75.47
2022-11-07T06:24:21.535Z,75.56
2022-11-07T06:27:24.513Z,76.29
2022-11-07T06:30:29.413Z,76.05
2022-11-07T06:33:32.504Z,75.07
2022-11-07T06:36:35.110Z,75.00
2022-11-07T06:39:37.727Z,73.83
2022-11-07T06:42:40.312Z,73.78
2022-11-07T06:45:45.550Z,73.39
2022-11-07T06:48:48.061Z,73.02
2022-11-07T06:51:50.769Z,72.96
2022-11-07T06:54:53.374Z,73.32
2022-11-07T06:57:59.424Z,73.02
2022-11-07T07:01:04.796Z,73.41
2022-11-07T07:04:07.630Z,73.12
2022-11-07T07:07:10.349Z,72.42
2022-11-07T07:10:13.258Z,72.71
2022-11-07T07:13:16.469Z,73.02
2022-11-07T07:16:20.682Z,72.92
2022-11-07T07:19:23.393Z,73.36
2022-11-07T07:22:26.523Z,73.28
2022-11-07T07:25:29.279Z,74.25
2022-11-07T07:28:32.136Z,74.33
2022-11-07T07:31:36.500Z,74.45
2022-11-07T07:34:39.250Z,74.49
2022-11-07T07:37:42.063Z,74.34
2022-11-07T07:40:44.836Z,74.73
2022-11-07T07:43:47.746Z,73.89
2022-11-07T07:46:51.792Z,73.54
2022-11-07T07:49:54.593Z,73.25
2022-11-07T07:52:57.934Z,71.57
2022-11-07T07:56:02.745Z,70.69
2022-11-07T07:59:05.437Z,69.74
2022-11-07T08:02:12.108Z,68.26
2022-11-07T08:05:16.128Z,67.63
2022-11-07T08:08:18.828Z,66.91
2022-11-07T08:11:21.670Z,65.82
2022-11-07T08:14:24.300Z,64.99
2022-11-07T08:17:28.314Z,65.03
2022-11-07T08:20:30.915Z,64.60
2022-11-07T08:23:33.509Z,64.05
2022-11-07T08:26:37.428Z,63.52
2022-11-07T08:29:40.009Z,63.16
2022-11-07T08:32:43.943Z,63.24
2022-11-07T08:35:46.537Z,62.96
2022-11-07T08:38:49.402Z,63.78
2022-11-07T08:41:52.492Z,63.46
2022-11-07T08:44:55.442Z,63.10
2022-11-07T08:47:59.760Z,62.24
2022-11-07T08:51:03.157Z,60.79
2022-11-07T08:54:06.083Z,60.15
2022-11-07T08:57:08.752Z,59.18
2022-11-07T09:00:12.841Z,58.61
2022-11-07T09:03:43.685Z,58.67
2022-11-07T09:06:39.917Z,58.68
2022-11-07T09:09:42.606Z,59.26
2022-11-07T09:12:46.014Z,59.00
2022-11-07T09:15:51.429Z,58.78
2022-11-07T09:18:56.090Z,58.05
2022-11-07T09:21:59.354Z,58.76
2022-11-07T09:25:02.344Z,57.69
2022-11-07T09:28:08.263Z,57.70
2022-11-07T09:31:11.709Z,56.85
2022-11-07T09:34:15.590Z,56.99
2022-11-07T09:37:18.480Z,56.99
2022-11-07T09:40:33.375Z,56.02
2022-11-07T09:43:57.664Z,55.63
2022-11-07T09:47:03.115Z,55.08
2022-11-07T09:50:13.483Z,55.10
2022-11-07T09:53:19.842Z,55.21
2022-11-07T09:56:22.718Z,54.77
2022-11-07T09:59:28.772Z,55.24
2022-11-07T10:02:33.328Z,55.19
2022-11-07T10:05:44.827Z,54.55
2022-11-07T10:08:51.941Z,54.65
2022-11-07T10:11:59.832Z,54.17
2022-11-07T10:15:05.735Z,53.50
2022-11-07T10:18:16.335Z,54.07
2022-11-07T10:21:37.498Z,53.54
2022-11-07T10:24:48.865Z,52.79
2022-11-07T10:27:55.164Z,52.01
2022-11-07T10:31:00.284Z,51.53
2022-11-07T10:34:05.336Z,51.97
2022-11-07T10:37:10.095Z,51.35
2022-11-07T10:40:15.972Z,51.78
2022-11-07T10:43:32.890Z,51.51
2022-11-07T10:46:39.387Z,52.44
2022-11-07T10:49:42.011Z,52.10
2022-11-07T10:52:53.480Z,51.73
2022-11-07T10:55:56.561Z,51.20
2022-11-07T10:58:59.339Z,51.30
2022-11-07T11:02:02.666Z,52.23
2022-11-07T11:05:05.793Z,53.35
2022-11-07T11:08:16.181Z,53.49
2022-11-07T11:11:28.382Z,53.04
2022-11-07T11:14:31.149Z,52.18
2022-11-07T11:17:34.335Z,51.85
2022-11-07T11:20:38.985Z,51.53
2022-11-07T11:23:45.880Z,50.83
2022-11-07T11:26:50.224Z,50.11
2022-11-07T11:29:57.484Z,49.39
2022-11-07T11:33:05.426Z,48.33
2022-11-07T11:36:12.130Z,47.41
2022-11-07T11:39:26.468Z,46.96
2022-11-07T11:42:33.706Z,47.07
2022-11-07T11:45:42.344Z,48.28
2022-11-07T11:48:46.359Z,47.62
2022-11-07T11:51:51.650Z,48.22
2022-11-07T11:54:57.704Z,48.14
2022-11-07T11:58:09.120Z,47.70
2022-11-07T12:01:19.727Z,46.90
2022-11-07T12:04:49.855Z,48.56
2022-11-07T12:07:59.362Z,48.02
2022-11-07T12:11:07.691Z,47.53
2022-11-07T12:14:28.141Z,47.34
2022-11-07T12:17:39.042Z,46.40
2022-11-07T12:20:47.289Z,46.65
2022-11-07T12:24:03.560Z,47.65
2022-11-07T12:27:14.457Z,48.68
2022-11-07T12:30:21.927Z,48.43
2022-11-07T12:33:31.271Z,46.13
2022-11-07T12:36:45.421Z,46.38
2022-11-07T12:39:55.671Z,46.35
2022-11-07T12:43:11.702Z,45.80
2022-11-07T12:46:18.253Z,45.81
2022-11-07T12:49:44.182Z,45.84
2022-11-07T12:52:56.821Z,45.76
2022-11-07T12:56:03.182Z,45.32
2022-11-07T12:59:12.193Z,45.29
2022-11-07T13:02:27.002Z,46.50
2022-11-07T13:05:39.441Z,47.28
2022-11-07T13:08:52.037Z,47.79
2022-11-07T13:11:58.395Z,48.41
2022-11-07T13:15:04.480Z,47.60
2022-11-07T13:18:15.755Z,48.54
2022-11-07T13:21:21.251Z,47.57
2022-11-07T13:24:23.926Z,46.27
2022-11-07T13:27:33.830Z,34.94
2022-11-07T13:30:39.983Z,36.66
2022-11-07T13:33:42.627Z,41.65
2022-11-07T13:36:46.335Z,44.23
2022-11-07T13:39:52.230Z,45.38
2022-11-07T13:42:56.488Z,44.00
2022-11-07T13:46:02.770Z,42.07
2022-11-07T13:49:08.039Z,41.41
2022-11-07T13:52:18.187Z,44.42
2022-11-07T13:55:23.734Z,45.52
2022-11-07T13:58:27.885Z,45.42
2022-11-07T14:01:43.532Z,46.13
2022-11-07T14:05:14.853Z,46.52
2022-11-07T14:08:20.385Z,45.82
2022-11-07T14:11:24.673Z,44.23
2022-11-07T14:14:28.690Z,43.67
2022-11-07T14:17:34.904Z,44.25
2022-11-07T14:20:37.866Z,44.96
2022-11-07T14:23:45.558Z,45.93
2022-11-07T14:26:59.035Z,46.24
2022-11-07T14:30:01.787Z,46.78
2022-11-07T14:33:06.948Z,47.29
2022-11-07T14:36:13.624Z,47.35
2022-11-07T14:39:16.967Z,47.84
2022-11-07T14:42:20.240Z,48.27
2022-11-07T14:45:47.117Z,48.75
2022-11-07T14:48:49.959Z,50.00
2022-11-07T14:51:53.378Z,50.73
2022-11-07T14:54:58.273Z,51.30
2022-11-07T14:58:01.954Z,52.59
2022-11-07T15:01:13.494Z,53.86
2022-11-07T15:04:27.942Z,54.34
2022-11-07T15:07:32.709Z,54.49
2022-11-07T15:10:39.495Z,54.87
2022-11-07T15:13:43.286Z,54.70
2022-11-07T15:16:48.373Z,54.61
2022-11-07T15:19:59.813Z,54.35
2022-11-07T15:23:04.324Z,54.82
2022-11-07T15:26:22.532Z,55.70
2022-11-07T15:29:25.166Z,55.04
2022-11-07T15:32:31.648Z,54.93
2022-11-07T15:35:44.018Z,55.08
2022-11-07T15:38:48.133Z,54.62
2022-11-07T15:41:50.816Z,54.85
2022-11-07T15:44:53.622Z,55.09
2022-11-07T15:47:56.440Z,55.46
2022-11-07T15:51:00.502Z,55.19
2022-11-07T15:54:03.420Z,55.79
2022-11-07T15:57:07.323Z,55.72
2022-11-07T16:00:15.545Z,55.82
2022-11-07T16:03:19.782Z,56.31
2022-11-07T16:06:27.553Z,57.06
2022-11-07T16:09:33.661Z,57.52
2022-11-07T16:12:36.344Z,57.82
2022-11-07T16:15:39.677Z,58.15
2022-11-07T16:18:44.556Z,59.18
2022-11-07T16:21:49.065Z,60.05
2022-11-07T16:24:51.735Z,60.26
2022-11-07T16:27:56.154Z,61.68
2022-11-07T16:30:59.060Z,63.24
2022-11-07T16:34:03.361Z,62.61
2022-11-07T16:37:07.458Z,62.56
2022-11-07T16:40:14.189Z,62.87
2022-11-07T16:43:17.607Z,62.97
2022-11-07T16:46:21.624Z,62.61
2022-11-07T16:49:29.329Z,63.33
2022-11-07T16:52:33.644Z,63.01
2022-11-07T16:55:37.068Z,63.96
2022-11-07T16:58:39.942Z,64.44
2022-11-07T17:01:42.652Z,63.95
2022-11-07T17:04:45.401Z,64.48
2022-11-07T17:07:50.571Z,63.58
2022-11-07T17:10:53.419Z,64.70
2022-11-07T17:13:56.111Z,64.86
2022-11-07T17:17:04.464Z,64.80
2022-11-07T17:20:08.547Z,65.37
2022-11-07T17:23:12.646Z,65.90
2022-11-07T17:26:16.216Z,66.96
2022-11-07T17:29:18.768Z,65.46
2022-11-07T17:32:21.565Z,66.30
2022-11-07T17:35:32.009Z,66.28
2022-11-07T17:38:36.344Z,65.57
2022-11-07T17:41:39.587Z,65.59
2022-11-07T17:44:43.214Z,65.34
2022-11-07T17:47:45.635Z,65.32
2022-11-07T17:50:48.291Z,65.30
2022-11-07T17:53:52.521Z,66.83
2022-11-07T17:56:55.105Z,67.94
2022-11-07T17:59:57.877Z,68.36
2022-11-07T18:03:00.629Z,68.64
2022-11-07T18:06:03.263Z,69.76
2022-11-07T18:09:08.931Z,71.00
2022-11-07T18:12:12.149Z,71.36
2022-11-07T18:15:14.720Z,71.47
2022-11-07T18:18:17.486Z,71.91
2022-11-07T18:21:20.630Z,71.70
2022-11-07T18:24:24.905Z,71.06
2022-11-07T18:27:27.677Z,70.72
2022-11-07T18:30:30.980Z,70.55
2022-11-07T18:33:33.961Z,70.76
2022-11-07T18:36:38.225Z,70.70
2022-11-07T18:39:42.200Z,71.49
2022-11-07T18:42:45.534Z,72.15
2022-11-07T18:45:48.526Z,72.62
2022-11-07T18:48:51.733Z,73.47
2022-11-07T18:51:54.497Z,74.11
2022-11-07T18:54:58.898Z,73.66
2022-11-07T18:58:01.629Z,74.01
2022-11-07T19:01:06.588Z,75.15
2022-11-07T19:04:11.392Z,75.16
2022-11-07T19:07:13.976Z,75.40
2022-11-07T19:10:18.208Z,75.99
2022-11-07T19:13:20.754Z,76.11
2022-11-07T19:16:23.670Z,76.55
2022-11-07T19:19:26.571Z,76.42
2022-11-07T19:22:29.331Z,76.25
2022-11-07T19:25:33.335Z,76.87
2022-11-07T19:28:37.184Z,77.92
2022-11-07T19:31:39.944Z,77.83
2022-11-07T19:34:42.546Z,77.60
2022-11-07T19:37:45.110Z,77.89
2022-11-07T19:40:50.529Z,78.55
2022-11-07T19:43:53.119Z,78.65
2022-11-07T19:46:55.819Z,79.32
2022-11-07T19:49:58.634Z,79.75
2022-11-07T19:53:01.288Z,79.88
2022-11-07T19:56:09.930Z,80.56
2022-11-07T19:59:12.489Z,80.95
2022-11-07T20:02:32.422Z,81.69
2022-11-07T20:05:39.488Z,82.11
2022-11-07T20:08:43.270Z,82.49
2022-11-07T20:11:49.001Z,82.44
2022-11-07T20:14:51.603Z,82.75
2022-11-07T20:17:54.203Z,82.94
2022-11-07T20:21:04.103Z,83.45
2022-11-07T20:24:09.125Z,83.82
2022-11-07T20:27:13.554Z,84.09
2022-11-07T20:30:16.165Z,84.25
2022-11-07T20:33:19.022Z,84.36
2022-11-07T20:36:22.174Z,84.42
2022-11-07T20:39:24.869Z,84.35
2022-11-07T20:42:28.796Z,84.20
2022-11-07T20:45:31.655Z,84.03
2022-11-07T20:48:34.721Z,84.29
2022-11-07T20:51:37.546Z,84.14
2022-11-07T20:54:40.206Z,84.16
2022-11-07T20:57:44.497Z,84.28
2022-11-07T21:00:47.222Z,84.80
2022-11-07T21:03:50.077Z,85.11
2022-11-07T21:06:52.672Z,85.55
2022-11-07T21:09:55.286Z,85.75
2022-11-07T21:12:59.193Z,85.29
2022-11-07T21:16:01.929Z,85.30
2022-11-07T21:19:05.073Z,84.73
2022-11-07T21:22:07.656Z,84.46
2022-11-07T21:25:10.607Z,84.75
2022-11-07T21:28:17.304Z,84.98
2022-11-07T21:31:23.856Z,85.42
2022-11-07T21:34:26.440Z,85.53
2022-11-07T21:37:29.159Z,86.10
2022-11-07T21:40:31.735Z,86.40
2022-11-07T21:43:35.616Z,86.74
2022-11-07T21:46:38.240Z,86.88
2022-11-07T21:49:40.872Z,87.67
2022-11-07T21:52:43.474Z,87.47
2022-11-07T21:55:46.064Z,87.85
2022-11-07T21:58:50.973Z,87.29
2022-11-07T22:01:55.220Z,87.69
2022-11-07T22:04:57.978Z,87.98
2022-11-07T22:08:00.779Z,88.05
2022-11-07T22:11:03.532Z,87.42
2022-11-07T22:14:07.443Z,88.17
2022-11-07T22:17:10.193Z,88.35
2022-11-07T22:20:13.642Z,88.81
2022-11-07T22:23:16.528Z,88.97
2022-11-07T22:26:21.070Z,89.14
2022-11-07T22:29:25.002Z,88.38
2022-11-07T22:32:27.640Z,89.13
2022-11-07T22:35:30.387Z,89.37
2022-11-07T22:38:33.845Z,88.83
2022-11-07T22:41:36.634Z,89.01
2022-11-07T22:44:40.540Z,88.89
2022-11-07T22:47:43.092Z,89.59
2022-11-07T22:50:46.048Z,89.40
2022-11-07T22:53:48.703Z,89.31
2022-11-07T22:56:51.244Z,89.50
2022-11-07T22:59:55.209Z,89.95
2022-11-07T23:02:57.977Z,89.95
2022-11-07T23:06:03.803Z,89.99
2022-11-07T23:09:06.367Z,89.78
2022-11-07T23:12:09.049Z,90.01
2022-11-07T23:15:13.279Z,89.54
2022-11-07T23:18:16.373Z,89.59
2022-11-07T23:21:19.539Z,89.78
2022-11-07T23:24:22.165Z,90.95
2022-11-07T23:27:24.955Z,89.94
2022-11-07T23:30:30.223Z,90.61
2022-11-07T23:33:34.250Z,90.35
2022-11-07T23:36:37.035Z,90.20
2022-11-07T23:39:39.601Z,89.76
2022-11-07T23:42:42.600Z,90.29
2022-11-07T23:46:04.087Z,89.80
2022-11-07T23:49:24.577Z,90.43
2022-11-07T23:52:27.303Z,90.14
2022-11-07T23:55:41.263Z,89.91
2022-11-07T23:59:01.217Z,90.49
